createdAt,value
2017-09-26T00:00:59.787Z,10.00
2017-09-26T00:03:26.205Z,10.10
2017-09-26T00:05:52.794Z,9.90
2017-09-26T00:08:19.961Z,9.80
2017-09-26T00:10:46.375Z,9.80
2017-09-26T00:13:13.583Z,9.80
2017-09-26T00:15:39.991Z,9.80
2017-09-26T00:18:06.571Z,9.80
2017-09-26T00:20:33.020Z,9.90
2017-09-26T00:22:59.492Z,9.80
2017-09-26T00:25:25.957Z,9.70
2017-09-26T00:27:52.448Z,9.80
2017-09-26T00:30:18.892Z,9.70
2017-09-26T00:32:45.351Z,9.70
2017-09-26T00:35:11.857Z,9.60
2017-09-26T00:37:38.312Z,9.60
2017-09-26T00:40:04.801Z,9.60
2017-09-26T00:42:32.086Z,9.60
2017-09-26T00:44:58.523Z,9.60
2017-09-26T00:47:25.010Z,9.50
2017-09-26T00:49:52.212Z,9.70
2017-09-26T00:52:18.712Z,9.60
2017-09-26T00:54:45.886Z,9.70
2017-09-26T00:57:12.368Z,9.70
2017-09-26T00:59:38.835Z,9.50
2017-09-26T01:02:05.295Z,9.70
2017-09-26T01:04:31.767Z,9.70
2017-09-26T01:07:01.055Z,9.70
2017-09-26T01:09:27.551Z,9.70
2017-09-26T01:11:53.983Z,9.70
2017-09-26T01:14:20.498Z,9.50
2017-09-26T01:16:46.947Z,9.50
2017-09-26T01:19:13.376Z,9.40
2017-09-26T01:21:39.939Z,9.40
2017-09-26T01:24:06.434Z,9.40
2017-09-26T01:26:32.891Z,9.40
2017-09-26T01:28:59.348Z,9.40
2017-09-26T01:31:25.825Z,9.50
2017-09-26T01:33:53.035Z,9.50
2017-09-26T01:36:19.501Z,9.50
2017-09-26T01:38:46.736Z,9.50
2017-09-26T01:41:19.131Z,9.50
2017-09-26T01:43:46.496Z,9.30
2017-09-26T01:46:12.963Z,9.30
2017-09-26T01:48:39.523Z,9.40
2017-09-26T01:51:05.999Z,9.40
2017-09-26T01:53:32.458Z,9.50
2017-09-26T01:55:58.935Z,9.50
2017-09-26T02:01:25.175Z,9.60
2017-09-26T02:03:51.596Z,9.50
2017-09-26T02:06:18.242Z,9.50
2017-09-26T02:08:44.747Z,9.60
2017-09-26T02:11:11.204Z,9.30
2017-09-26T02:13:37.655Z,9.30
2017-09-26T02:16:04.284Z,9.30
2017-09-26T02:18:30.734Z,9.50
2017-09-26T02:20:57.931Z,9.40
2017-09-26T02:23:24.435Z,9.40
2017-09-26T02:25:51.015Z,9.30
2017-09-26T02:28:17.439Z,9.30
2017-09-26T02:30:44.001Z,9.30
2017-09-26T02:33:10.457Z,9.20
2017-09-26T02:35:37.650Z,9.20
2017-09-26T02:38:04.067Z,9.20
2017-09-26T02:40:30.692Z,9.30
2017-09-26T02:42:57.875Z,9.30
2017-09-26T02:45:24.307Z,9.20
2017-09-26T02:47:50.811Z,9.30
2017-09-26T02:50:17.243Z,9.30
2017-09-26T02:52:43.691Z,9.30
2017-09-26T02:55:10.120Z,9.20
2017-09-26T02:57:36.552Z,9.10
2017-09-26T03:00:03.036Z,9.00
2017-09-26T03:02:29.463Z,9.00
2017-09-26T03:04:56.015Z,9.20
2017-09-26T03:07:22.468Z,9.20
2017-09-26T03:09:49.675Z,9.10
2017-09-26T03:12:16.164Z,9.10
2017-09-26T03:14:42.627Z,8.90
2017-09-26T03:17:09.062Z,8.90
2017-09-26T03:19:35.491Z,8.90
2017-09-26T03:22:01.947Z,8.90
2017-09-26T03:24:28.429Z,8.90
2017-09-26T03:26:54.978Z,9.10
2017-09-26T03:29:21.420Z,9.10
2017-09-26T03:31:47.867Z,9.10
2017-09-26T03:34:14.269Z,9.10
2017-09-26T03:36:40.723Z,9.20
2017-09-26T03:39:07.182Z,9.20
2017-09-26T03:41:33.615Z,9.20
2017-09-26T03:44:00.069Z,9.20
2017-09-26T03:46:26.483Z,9.20
2017-09-26T03:48:52.947Z,9.10
2017-09-26T03:51:20.103Z,9.20
2017-09-26T03:53:47.303Z,9.00
2017-09-26T03:56:13.766Z,9.00
2017-09-26T03:58:40.229Z,9.10
2017-09-26T04:01:06.711Z,9.20
2017-09-26T04:03:33.180Z,9.10
2017-09-26T04:06:00.359Z,9.40
2017-09-26T04:08:26.918Z,9.40
2017-09-26T04:10:53.338Z,9.40
2017-09-26T04:13:19.777Z,9.30
2017-09-26T04:15:46.215Z,9.30
2017-09-26T04:18:12.775Z,9.30
2017-09-26T04:20:39.199Z,9.40
2017-09-26T04:23:05.634Z,9.40
2017-09-26T04:25:32.931Z,9.40
2017-09-26T04:27:59.355Z,9.40
2017-09-26T04:30:26.572Z,9.60
2017-09-26T04:32:52.998Z,9.60
2017-09-26T04:35:19.438Z,9.50
2017-09-26T04:37:45.855Z,9.60
2017-09-26T04:40:12.266Z,9.50
2017-09-26T04:42:38.719Z,9.50
2017-09-26T04:45:05.206Z,9.40
2017-09-26T04:47:31.662Z,9.30
2017-09-26T04:49:58.095Z,9.50
2017-09-26T04:52:24.659Z,9.50
2017-09-26T04:54:51.090Z,9.40
2017-09-26T04:57:17.531Z,9.40
2017-09-26T04:59:44.125Z,9.30
2017-09-26T05:02:10.611Z,9.20
2017-09-26T05:04:37.062Z,9.30
2017-09-26T05:07:04.263Z,9.40
2017-09-26T05:09:30.807Z,9.40
2017-09-26T05:11:57.271Z,9.40
2017-09-26T05:14:23.703Z,9.40
2017-09-26T05:16:50.158Z,9.50
2017-09-26T05:19:16.571Z,9.50
2017-09-26T05:21:43.730Z,9.60
2017-09-26T05:24:10.915Z,9.50
2017-09-26T05:26:37.381Z,9.50
2017-09-26T05:29:03.838Z,9.50
2017-09-26T05:31:31.031Z,9.40
2017-09-26T05:33:57.503Z,9.40
2017-09-26T05:36:24.011Z,9.40
2017-09-26T05:38:50.436Z,9.40
2017-09-26T05:41:16.890Z,9.40
2017-09-26T05:43:43.315Z,9.40
2017-09-26T05:46:09.765Z,9.50
2017-09-26T05:48:36.223Z,9.60
2017-09-26T05:51:03.406Z,9.60
2017-09-26T05:53:29.906Z,9.60
2017-09-26T05:55:57.059Z,9.80
2017-09-26T05:58:24.275Z,9.90
2017-09-26T06:00:50.698Z,9.80
2017-09-26T06:03:17.172Z,10.00
2017-09-26T06:05:44.354Z,10.20
2017-09-26T06:08:10.799Z,10.10
2017-09-26T06:10:37.406Z,10.30
2017-09-26T06:13:03.867Z,10.30
2017-09-26T06:15:30.495Z,10.40
2017-09-26T06:17:57.043Z,10.50
2017-09-26T06:20:23.491Z,10.70
2017-09-26T06:22:49.939Z,10.70
2017-09-26T06:25:16.424Z,10.80
2017-09-26T06:27:43.031Z,10.90
2017-09-26T06:30:10.215Z,11.20
2017-09-26T06:32:36.705Z,11.20
2017-09-26T06:35:03.167Z,11.30
2017-09-26T06:37:30.334Z,11.40
2017-09-26T06:39:56.813Z,11.40
2017-09-26T06:42:23.363Z,11.60
2017-09-26T06:44:49.791Z,11.60
2017-09-26T06:47:16.296Z,11.70
2017-09-26T06:49:42.774Z,11.70
2017-09-26T06:52:09.983Z,11.80
2017-09-26T06:54:36.472Z,11.80
2017-09-26T06:57:02.882Z,11.80
2017-09-26T06:59:30.071Z,12.00
2017-09-26T07:01:56.496Z,12.00
2017-09-26T07:04:22.943Z,12.10
2017-09-26T07:06:49.365Z,12.20
2017-09-26T07:09:15.799Z,12.30
2017-09-26T07:11:42.231Z,12.40
2017-09-26T07:14:08.724Z,12.50
2017-09-26T07:16:35.944Z,12.70
2017-09-26T07:19:02.438Z,12.60
2017-09-26T07:21:28.919Z,12.70
2017-09-26T07:23:55.366Z,12.70
2017-09-26T07:26:21.839Z,12.70
2017-09-26T07:28:48.286Z,12.70
2017-09-26T07:31:14.779Z,12.80
2017-09-26T07:33:42.070Z,12.90
2017-09-26T07:36:08.535Z,12.90
2017-09-26T07:38:34.970Z,13.00
2017-09-26T07:41:01.416Z,13.20
2017-09-26T07:43:27.870Z,13.60
2017-09-26T07:45:55.127Z,14.10
2017-09-26T07:48:22.366Z,14.30
2017-09-26T07:50:49.539Z,14.50
2017-09-26T07:53:15.987Z,14.50
2017-09-26T07:55:42.416Z,14.70
2017-09-26T07:58:08.898Z,14.60
2017-09-26T08:00:36.591Z,14.40
2017-09-26T08:03:03.823Z,14.50
2017-09-26T08:05:32.322Z,14.60
2017-09-26T08:08:00.690Z,14.70
2017-09-26T08:10:27.877Z,14.90
2017-09-26T08:12:54.298Z,14.90
2017-09-26T08:15:20.803Z,15.10
2017-09-26T08:17:48.005Z,15.30
2017-09-26T08:20:14.433Z,15.30
2017-09-26T08:22:40.904Z,15.30
2017-09-26T08:25:07.342Z,15.40
2017-09-26T08:27:35.274Z,15.90
2017-09-26T08:30:01.780Z,15.80
2017-09-26T08:32:28.252Z,16.20
2017-09-26T08:34:54.871Z,16.50
2017-09-26T08:37:21.319Z,16.80
2017-09-26T08:39:47.783Z,17.00
2017-09-26T08:42:14.236Z,17.10
2017-09-26T08:44:41.423Z,16.90
2017-09-26T08:47:07.856Z,16.90
2017-09-26T08:49:34.368Z,17.00
2017-09-26T08:52:00.912Z,17.00
2017-09-26T08:54:27.352Z,17.00
2017-09-26T08:56:53.903Z,17.10
2017-09-26T08:59:20.322Z,17.10
2017-09-26T09:01:46.815Z,17.20
2017-09-26T09:04:13.984Z,17.90
2017-09-26T09:06:41.174Z,18.50
2017-09-26T09:09:07.619Z,18.50
2017-09-26T09:11:34.048Z,18.70
2017-09-26T09:14:00.514Z,19.70
2017-09-26T09:16:27.697Z,20.90
2017-09-26T09:18:54.118Z,20.90
2017-09-26T09:21:20.593Z,20.80
2017-09-26T09:23:47.010Z,21.10
2017-09-26T09:26:13.431Z,21.20
2017-09-26T09:28:39.882Z,21.10
2017-09-26T09:31:06.323Z,21.50
2017-09-26T09:33:32.966Z,21.20
2017-09-26T09:35:59.386Z,21.50
2017-09-26T09:38:25.807Z,21.40
2017-09-26T09:40:52.359Z,21.50
2017-09-26T09:43:18.782Z,21.70
2017-09-26T09:45:45.272Z,21.60
2017-09-26T09:48:12.451Z,21.70
2017-09-26T09:50:38.922Z,21.70
2017-09-26T09:53:05.368Z,21.40
2017-09-26T09:55:31.867Z,20.90
2017-09-26T09:57:58.370Z,20.90
2017-09-26T10:00:24.823Z,20.80
2017-09-26T10:02:51.443Z,20.70
2017-09-26T10:05:17.870Z,20.40
2017-09-26T10:07:44.313Z,20.40
2017-09-26T10:10:10.803Z,20.20
2017-09-26T10:12:37.247Z,20.20
2017-09-26T10:15:04.634Z,20.70
2017-09-26T10:17:31.096Z,20.70
2017-09-26T10:19:57.562Z,20.90
2017-09-26T10:22:24.007Z,20.90
2017-09-26T10:24:51.243Z,21.20
2017-09-26T10:27:17.834Z,21.20
2017-09-26T10:29:44.238Z,21.40
2017-09-26T10:32:11.452Z,21.70
2017-09-26T10:34:37.912Z,21.70
2017-09-26T10:37:05.114Z,21.80
2017-09-26T10:39:31.571Z,21.80
2017-09-26T10:41:58.022Z,21.60
2017-09-26T10:44:24.635Z,21.20
2017-09-26T10:46:51.306Z,21.20
2017-09-26T10:49:18.562Z,20.90
2017-09-26T10:51:45.755Z,21.00
2017-09-26T10:54:12.187Z,21.00
2017-09-26T10:56:38.632Z,21.10
2017-09-26T10:59:05.100Z,20.90
2017-09-26T11:01:32.326Z,21.80
2017-09-26T11:03:58.772Z,21.80
2017-09-26T11:06:25.211Z,22.70
2017-09-26T11:08:51.671Z,23.20
2017-09-26T11:11:18.130Z,23.70
2017-09-26T11:13:44.551Z,23.60
2017-09-26T11:16:11.015Z,23.10
2017-09-26T11:18:37.468Z,22.60
2017-09-26T11:21:04.685Z,21.70
2017-09-26T11:23:31.106Z,21.70
2017-09-26T11:25:57.634Z,21.00
2017-09-26T11:28:24.111Z,20.90
2017-09-26T11:30:50.511Z,20.70
2017-09-26T11:33:16.949Z,20.20
2017-09-26T11:35:43.394Z,20.10
2017-09-26T11:38:09.852Z,19.70
2017-09-26T11:40:36.376Z,19.40
2017-09-26T11:43:02.850Z,19.50
2017-09-26T11:45:30.013Z,20.20
2017-09-26T11:47:56.469Z,20.20
2017-09-26T11:50:22.919Z,20.50
2017-09-26T11:52:49.355Z,21.00
2017-09-26T11:55:15.847Z,22.00
2017-09-26T11:57:42.295Z,22.90
2017-09-26T12:00:08.747Z,23.80
2017-09-26T12:02:35.294Z,24.40
2017-09-26T12:05:01.744Z,24.60
2017-09-26T12:07:28.246Z,25.30
2017-09-26T12:09:54.675Z,25.80
2017-09-26T12:12:21.134Z,25.60
2017-09-26T12:14:48.435Z,23.70
2017-09-26T12:17:14.887Z,23.70
2017-09-26T12:19:41.323Z,23.20
2017-09-26T12:22:07.780Z,22.80
2017-09-26T12:27:22.994Z,20.50
2017-09-26T12:29:50.221Z,21.80
2017-09-26T12:32:16.710Z,21.80
2017-09-26T12:34:43.327Z,22.80
2017-09-26T12:37:09.804Z,22.70
2017-09-26T12:39:36.277Z,21.70
2017-09-26T12:42:03.495Z,21.00
2017-09-26T12:44:29.931Z,20.90
2017-09-26T12:46:56.397Z,21.40
2017-09-26T12:49:23.630Z,21.90
2017-09-26T12:51:50.071Z,21.90
2017-09-26T12:54:17.278Z,21.60
2017-09-26T12:56:43.735Z,21.60
2017-09-26T12:59:10.230Z,22.90
2017-09-26T13:01:36.680Z,22.50
2017-09-26T13:04:03.119Z,22.50
2017-09-26T13:06:29.602Z,23.30
2017-09-26T13:08:56.898Z,21.30
2017-09-26T13:11:23.324Z,21.20
2017-09-26T13:13:49.735Z,20.50
2017-09-26T13:16:16.218Z,20.80
2017-09-26T13:18:42.678Z,22.20
2017-09-26T13:21:09.120Z,21.80
2017-09-26T13:23:36.346Z,21.00
2017-09-26T13:26:02.978Z,20.80
2017-09-26T13:28:29.427Z,21.70
2017-09-26T13:30:55.962Z,22.00
2017-09-26T13:33:22.406Z,22.30
2017-09-26T13:35:49.619Z,21.00
2017-09-26T13:38:16.098Z,21.00
2017-09-26T13:40:43.268Z,22.30
2017-09-26T13:43:09.758Z,22.30
2017-09-26T13:45:36.206Z,22.30
2017-09-26T13:48:03.423Z,20.70
2017-09-26T13:50:29.924Z,20.70
2017-09-26T13:52:56.374Z,20.00
2017-09-26T13:55:22.834Z,19.80
2017-09-26T13:57:49.287Z,19.40
2017-09-26T14:00:16.573Z,19.10
2017-09-26T14:02:43.028Z,19.00
2017-09-26T14:05:09.558Z,19.20
2017-09-26T14:07:36.085Z,19.40
2017-09-26T14:10:02.495Z,19.50
2017-09-26T14:12:28.968Z,19.90
2017-09-26T14:14:55.394Z,20.50
2017-09-26T14:17:21.819Z,21.00
2017-09-26T14:19:48.463Z,22.00
2017-09-26T14:22:14.900Z,21.80
2017-09-26T14:24:41.437Z,22.40
2017-09-26T14:27:07.868Z,23.00
2017-09-26T14:29:34.436Z,24.20
2017-09-26T14:32:00.872Z,25.10
2017-09-26T14:34:27.418Z,25.60
2017-09-26T14:36:54.667Z,27.60
2017-09-26T14:39:21.856Z,27.50
2017-09-26T14:41:48.319Z,27.40
2017-09-26T14:44:14.744Z,26.90
2017-09-26T14:46:41.230Z,24.80
2017-09-26T14:49:08.514Z,20.70
2017-09-26T14:51:35.139Z,20.70
2017-09-26T14:54:01.643Z,19.60
2017-09-26T14:56:28.900Z,19.30
2017-09-26T14:58:56.221Z,19.10
2017-09-26T15:01:22.728Z,19.00
2017-09-26T15:03:49.211Z,19.00
2017-09-26T15:06:16.435Z,18.70
2017-09-26T15:08:43.034Z,18.70
2017-09-26T15:11:09.500Z,18.60
2017-09-26T15:13:35.959Z,18.50
2017-09-26T15:16:02.463Z,18.50
2017-09-26T15:18:28.956Z,18.40
2017-09-26T15:20:55.443Z,18.40
2017-09-26T15:23:21.902Z,18.60
2017-09-26T15:25:49.154Z,19.40
2017-09-26T15:28:16.434Z,19.50
2017-09-26T15:30:42.907Z,19.50
2017-09-26T15:33:09.390Z,19.00
2017-09-26T15:35:36.607Z,18.40
2017-09-26T15:38:03.912Z,18.30
2017-09-26T15:40:30.601Z,18.30
2017-09-26T15:42:57.121Z,18.30
2017-09-26T15:45:23.587Z,18.30
2017-09-26T15:47:50.759Z,18.20
2017-09-26T15:50:17.266Z,18.20
2017-09-26T15:52:44.459Z,18.10
2017-09-26T15:55:10.882Z,18.10
2017-09-26T15:57:37.379Z,18.10
2017-09-26T16:00:04.590Z,17.90
2017-09-26T16:02:31.102Z,17.90
2017-09-26T16:04:57.572Z,17.90
2017-09-26T16:07:24.040Z,17.90
2017-09-26T16:09:51.260Z,17.90
2017-09-26T16:12:19.303Z,17.90
2017-09-26T16:14:45.801Z,17.90
2017-09-26T16:17:13.159Z,18.70
2017-09-26T16:19:40.391Z,18.70
2017-09-26T16:22:06.819Z,18.70
2017-09-26T16:24:33.411Z,18.50
2017-09-26T16:26:59.845Z,18.20
2017-09-26T16:29:26.352Z,18.00
2017-09-26T16:31:53.574Z,17.70
2017-09-26T16:34:20.040Z,17.60
2017-09-26T16:36:46.509Z,17.50
2017-09-26T16:39:12.947Z,17.30
2017-09-26T16:41:39.406Z,17.20
2017-09-26T16:44:05.915Z,17.10
2017-09-26T16:46:32.364Z,17.00
2017-09-26T16:48:58.842Z,16.90
2017-09-26T16:51:25.491Z,16.80
2017-09-26T16:53:51.959Z,16.70
2017-09-26T16:56:18.679Z,16.60
2017-09-26T16:58:45.195Z,16.50
2017-09-26T17:01:11.664Z,16.50
2017-09-26T17:03:38.448Z,16.40
2017-09-26T17:06:05.642Z,16.40
2017-09-26T17:08:32.175Z,16.30
2017-09-26T17:10:58.622Z,16.30
2017-09-26T17:13:25.092Z,16.30
2017-09-26T17:15:52.300Z,16.20
2017-09-26T17:18:18.883Z,16.20
2017-09-26T17:20:46.056Z,16.10
2017-09-26T17:23:12.675Z,16.10
2017-09-26T17:25:39.144Z,16.00
2017-09-26T17:28:05.678Z,15.90
2017-09-26T17:30:32.254Z,15.80
2017-09-26T17:32:58.745Z,15.70
2017-09-26T17:35:25.262Z,15.70
2017-09-26T17:37:51.725Z,15.50
2017-09-26T17:40:18.200Z,15.50
2017-09-26T17:42:45.487Z,15.50
2017-09-26T17:45:11.955Z,15.50
2017-09-26T17:47:38.560Z,15.60
2017-09-26T17:50:05.031Z,15.60
2017-09-26T17:52:31.603Z,15.60
2017-09-26T17:54:58.824Z,15.50
2017-09-26T17:57:25.278Z,15.40
2017-09-26T17:59:52.487Z,15.30
2017-09-26T18:02:18.983Z,15.30
2017-09-26T18:04:45.472Z,15.20
2017-09-26T18:07:11.921Z,15.20
2017-09-26T18:09:39.876Z,14.90
2017-09-26T18:12:06.306Z,14.90
2017-09-26T18:14:32.825Z,14.90
2017-09-26T18:16:59.254Z,14.80
2017-09-26T18:19:25.685Z,14.70
2017-09-26T18:21:52.199Z,14.70
2017-09-26T18:24:18.887Z,14.60
2017-09-26T18:26:45.428Z,14.50
2017-09-26T18:29:12.647Z,14.30
2017-09-26T18:31:39.087Z,14.30
2017-09-26T18:34:05.597Z,14.20
2017-09-26T18:36:32.196Z,14.20
2017-09-26T18:38:59.396Z,14.10
2017-09-26T18:41:25.868Z,14.00
2017-09-26T18:43:53.337Z,14.00
2017-09-26T18:46:20.550Z,13.90
2017-09-26T18:48:47.158Z,13.90
2017-09-26T18:51:13.630Z,13.90
2017-09-26T18:53:40.128Z,13.80
2017-09-26T18:56:06.566Z,13.80
2017-09-26T18:58:33.072Z,13.70
2017-09-26T19:00:59.527Z,13.60
2017-09-26T19:03:25.981Z,13.50
2017-09-26T19:05:52.534Z,13.40
2017-09-26T19:08:19.195Z,13.30
2017-09-26T19:10:46.403Z,13.20
2017-09-26T19:13:12.934Z,13.20
2017-09-26T19:15:39.409Z,13.20
2017-09-26T19:18:05.907Z,13.20
2017-09-26T19:20:32.320Z,13.00
2017-09-26T19:22:58.804Z,13.00
2017-09-26T19:25:26.030Z,13.00
2017-09-26T19:27:52.493Z,13.00
2017-09-26T19:30:19.770Z,12.90
2017-09-26T19:32:46.180Z,12.90
2017-09-26T19:35:13.631Z,13.00
2017-09-26T19:37:40.822Z,12.80
2017-09-26T19:42:57.196Z,12.70
2017-09-26T19:45:23.700Z,12.70
2017-09-26T19:47:50.189Z,12.80
2017-09-26T19:50:16.666Z,12.80
2017-09-26T19:52:43.107Z,12.80
2017-09-26T19:55:09.567Z,12.70
2017-09-26T19:57:36.848Z,12.70
2017-09-26T20:00:03.352Z,12.70
2017-09-26T20:02:29.802Z,12.70
2017-09-26T20:04:57.009Z,12.80
2017-09-26T20:07:23.562Z,12.80
2017-09-26T20:09:50.023Z,12.90
2017-09-26T20:12:17.236Z,13.10
2017-09-26T20:14:43.700Z,13.10
2017-09-26T20:17:11.154Z,13.40
2017-09-26T20:19:38.365Z,13.60
2017-09-26T20:22:04.999Z,13.60
2017-09-26T20:24:31.500Z,13.60
2017-09-26T20:26:58.033Z,13.70
2017-09-26T20:29:24.543Z,13.60
2017-09-26T20:31:51.797Z,13.60
2017-09-26T20:34:19.020Z,13.50
2017-09-26T20:36:45.529Z,13.50
2017-09-26T20:39:12.086Z,13.30
2017-09-26T20:41:38.584Z,13.30
2017-09-26T20:44:05.187Z,13.30
2017-09-26T20:46:32.446Z,13.20
2017-09-26T20:48:59.713Z,13.40
2017-09-26T20:51:26.228Z,13.40
2017-09-26T20:53:53.538Z,13.60
2017-09-26T20:56:20.050Z,13.60
2017-09-26T20:58:46.549Z,13.60
2017-09-26T21:01:13.798Z,13.70
2017-09-26T21:03:41.025Z,13.70
2017-09-26T21:06:08.283Z,13.80
2017-09-26T21:08:35.515Z,13.70
2017-09-26T21:11:02.095Z,13.70
2017-09-26T21:13:29.330Z,13.70
2017-09-26T21:15:56.539Z,13.60
2017-09-26T21:18:23.037Z,13.60
2017-09-26T21:20:50.232Z,13.70
2017-09-26T21:23:16.776Z,13.50
2017-09-26T21:25:43.236Z,13.70
2017-09-26T21:28:10.426Z,13.70
2017-09-26T21:30:36.910Z,13.70
2017-09-26T21:33:03.361Z,13.70
2017-09-26T21:35:30.763Z,13.60
2017-09-26T21:37:57.205Z,13.60
2017-09-26T21:40:23.633Z,13.50
2017-09-26T21:42:50.082Z,13.40
2017-09-26T21:45:16.531Z,13.30
2017-09-26T21:47:43.076Z,13.30
2017-09-26T21:50:10.271Z,13.10
2017-09-26T21:52:36.770Z,13.10
2017-09-26T21:55:03.948Z,12.90
2017-09-26T21:57:30.524Z,12.90
2017-09-26T21:59:57.052Z,12.90
2017-09-26T22:02:23.708Z,12.70
2017-09-26T22:04:50.178Z,12.80
2017-09-26T22:07:16.676Z,12.80
2017-09-26T22:09:43.163Z,12.70
2017-09-26T22:12:09.643Z,12.70
2017-09-26T22:14:36.126Z,12.70
2017-09-26T22:17:02.559Z,12.60
2017-09-26T22:19:29.084Z,12.60
2017-09-26T22:21:55.534Z,12.50
2017-09-26T22:24:21.982Z,12.50
2017-09-26T22:26:48.446Z,12.50
2017-09-26T22:29:14.934Z,12.40
2017-09-26T22:31:41.407Z,12.40
2017-09-26T22:34:07.871Z,12.50
2017-09-26T22:36:35.050Z,12.50
2017-09-26T22:39:01.527Z,12.40
2017-09-26T22:41:27.987Z,12.50
2017-09-26T22:43:55.302Z,12.50
2017-09-26T22:46:22.474Z,12.40
2017-09-26T22:48:49.663Z,12.50
2017-09-26T22:51:16.128Z,12.40
2017-09-26T22:53:42.624Z,12.30
2017-09-26T22:56:09.063Z,12.10
2017-09-26T22:58:35.562Z,12.10
2017-09-26T23:01:02.731Z,12.00
2017-09-26T23:03:29.910Z,12.00
2017-09-26T23:05:56.490Z,12.00
2017-09-26T23:08:23.099Z,12.00
2017-09-26T23:10:49.679Z,12.00
2017-09-26T23:13:17.012Z,12.10
2017-09-26T23:15:43.455Z,12.10
2017-09-26T23:18:10.638Z,12.20
2017-09-26T23:20:37.332Z,12.10
2017-09-26T23:23:05.256Z,12.20
2017-09-26T23:25:31.693Z,12.20
2017-09-26T23:27:58.139Z,12.20
2017-09-26T23:30:24.548Z,12.10
2017-09-26T23:32:51.022Z,12.10
2017-09-26T23:35:17.455Z,12.10
2017-09-26T23:37:43.970Z,12.20
2017-09-26T23:40:10.530Z,12.20
2017-09-26T23:42:38.459Z,12.30
2017-09-26T23:45:05.126Z,12.30
2017-09-26T23:47:31.550Z,12.40
2017-09-26T23:49:58.022Z,12.40
2017-09-26T23:52:25.207Z,12.40
2017-09-26T23:54:51.879Z,12.40
2017-09-26T23:57:18.351Z,12.40
2017-09-26T23:59:45.534Z,12.50
